sensor_id;sensor_type;location;lat;lon;timestamp;temperature;humidity
75927;DHT22;64605;48.296;16.416;2023-04-03T00:01:28;8.70;57.00
75927;DHT22;64605;48.296;16.416;2023-04-03T00:03:54;8.70;57.10
75927;DHT22;64605;48.296;16.416;2023-04-03T00:06:20;8.70;56.60
75927;DHT22;64605;48.296;16.416;2023-04-03T00:08:45;8.70;57.00
75927;DHT22;64605;48.296;16.416;2023-04-03T00:11:11;8.70;56.70
75927;DHT22;64605;48.296;16.416;2023-04-03T00:13:38;8.70;56.70
75927;DHT22;64605;48.296;16.416;2023-04-03T00:16:04;8.80;56.50
75927;DHT22;64605;48.296;16.416;2023-04-03T00:18:30;8.70;56.50
75927;DHT22;64605;48.296;16.416;2023-04-03T00:20:56;8.70;56.60
75927;DHT22;64605;48.296;16.416;2023-04-03T00:23:21;8.70;56.70
75927;DHT22;64605;48.296;16.416;2023-04-03T00:25:49;8.60;57.10
75927;DHT22;64605;48.296;16.416;2023-04-03T00:28:15;8.70;56.90
75927;DHT22;64605;48.296;16.416;2023-04-03T00:30:41;8.70;56.60
75927;DHT22;64605;48.296;16.416;2023-04-03T00:33:07;8.70;56.70
75927;DHT22;64605;48.296;16.416;2023-04-03T00:35:34;8.70;56.90
75927;DHT22;64605;48.296;16.416;2023-04-03T00:38:00;8.70;57.10
75927;DHT22;64605;48.296;16.416;2023-04-03T00:40:26;8.60;56.90
75927;DHT22;64605;48.296;16.416;2023-04-03T00:42:59;8.70;58.20
75927;DHT22;64605;48.296;16.416;2023-04-03T00:45:32;8.70;57.00
75927;DHT22;64605;48.296;16.416;2023-04-03T00:48:00;8.70;57.10
75927;DHT22;64605;48.296;16.416;2023-04-03T00:50:28;8.70;57.20
75927;DHT22;64605;48.296;16.416;2023-04-03T00:52:54;8.70;57.00
75927;DHT22;64605;48.296;16.416;2023-04-03T00:55:20;8.70;57.00
75927;DHT22;64605;48.296;16.416;2023-04-03T00:57:46;8.70;57.50
75927;DHT22;64605;48.296;16.416;2023-04-03T01:00:15;8.70;57.10
75927;DHT22;64605;48.296;16.416;2023-04-03T01:02:42;8.70;57.00
75927;DHT22;64605;48.296;16.416;2023-04-03T01:05:08;8.70;57.20
75927;DHT22;64605;48.296;16.416;2023-04-03T01:07:35;8.70;57.20
75927;DHT22;64605;48.296;16.416;2023-04-03T01:10:07;8.70;57.40
75927;DHT22;64605;48.296;16.416;2023-04-03T01:12:36;8.70;57.50
75927;DHT22;64605;48.296;16.416;2023-04-03T01:15:14;8.70;57.50
75927;DHT22;64605;48.296;16.416;2023-04-03T01:25:22;8.70;57.50
75927;DHT22;64605;48.296;16.416;2023-04-03T01:27:48;8.80;57.40
75927;DHT22;64605;48.296;16.416;2023-04-03T01:30:16;8.80;57.90
75927;DHT22;64605;48.296;16.416;2023-04-03T01:32:42;8.80;57.40
75927;DHT22;64605;48.296;16.416;2023-04-03T01:35:09;8.80;57.80
75927;DHT22;64605;48.296;16.416;2023-04-03T01:37:35;8.80;57.80
75927;DHT22;64605;48.296;16.416;2023-04-03T01:40:01;8.80;57.90
75927;DHT22;64605;48.296;16.416;2023-04-03T01:42:28;8.90;57.60
75927;DHT22;64605;48.296;16.416;2023-04-03T01:44:54;8.90;57.60
75927;DHT22;64605;48.296;16.416;2023-04-03T01:47:21;8.80;57.40
75927;DHT22;64605;48.296;16.416;2023-04-03T01:49:46;8.80;57.30
75927;DHT22;64605;48.296;16.416;2023-04-03T01:52:12;8.80;57.40
75927;DHT22;64605;48.296;16.416;2023-04-03T01:54:38;8.80;57.70
75927;DHT22;64605;48.296;16.416;2023-04-03T01:57:03;8.80;57.50
75927;DHT22;64605;48.296;16.416;2023-04-03T01:59:29;8.80;57.40
75927;DHT22;64605;48.296;16.416;2023-04-03T02:01:55;8.80;57.20
75927;DHT22;64605;48.296;16.416;2023-04-03T02:04:20;8.80;57.30
75927;DHT22;64605;48.296;16.416;2023-04-03T02:06:46;8.80;57.00
75927;DHT22;64605;48.296;16.416;2023-04-03T02:09:12;8.90;57.00
75927;DHT22;64605;48.296;16.416;2023-04-03T02:11:37;8.80;57.40
75927;DHT22;64605;48.296;16.416;2023-04-03T02:14:03;8.90;57.40
75927;DHT22;64605;48.296;16.416;2023-04-03T02:16:29;8.80;57.00
75927;DHT22;64605;48.296;16.416;2023-04-03T02:18:54;8.80;57.10
75927;DHT22;64605;48.296;16.416;2023-04-03T02:21:20;8.80;57.10
75927;DHT22;64605;48.296;16.416;2023-04-03T02:23:46;8.80;57.00
75927;DHT22;64605;48.296;16.416;2023-04-03T02:26:14;8.70;57.20
75927;DHT22;64605;48.296;16.416;2023-04-03T02:28:40;8.70;56.80
75927;DHT22;64605;48.296;16.416;2023-04-03T02:31:10;8.70;56.50
75927;DHT22;64605;48.296;16.416;2023-04-03T02:33:37;8.80;56.70
75927;DHT22;64605;48.296;16.416;2023-04-03T02:36:04;8.70;57.50
75927;DHT22;64605;48.296;16.416;2023-04-03T02:38:30;8.80;56.90
75927;DHT22;64605;48.296;16.416;2023-04-03T02:41:07;8.80;56.80
75927;DHT22;64605;48.296;16.416;2023-04-03T02:43:34;8.80;57.90
75927;DHT22;64605;48.296;16.416;2023-04-03T02:46:00;8.80;56.40
75927;DHT22;64605;48.296;16.416;2023-04-03T02:48:26;8.80;56.50
75927;DHT22;64605;48.296;16.416;2023-04-03T02:50:52;8.80;56.30
75927;DHT22;64605;48.296;16.416;2023-04-03T02:53:18;8.80;56.50
75927;DHT22;64605;48.296;16.416;2023-04-03T02:55:44;8.80;56.70
75927;DHT22;64605;48.296;16.416;2023-04-03T02:58:10;8.80;56.30
75927;DHT22;64605;48.296;16.416;2023-04-03T03:00:36;8.80;57.50
75927;DHT22;64605;48.296;16.416;2023-04-03T03:03:02;8.80;56.80
75927;DHT22;64605;48.296;16.416;2023-04-03T03:05:28;8.80;57.00
75927;DHT22;64605;48.296;16.416;2023-04-03T03:07:54;8.80;56.80
75927;DHT22;64605;48.296;16.416;2023-04-03T03:10:21;8.80;56.80
75927;DHT22;64605;48.296;16.416;2023-04-03T03:12:47;8.80;56.90
75927;DHT22;64605;48.296;16.416;2023-04-03T03:15:13;8.80;56.60
75927;DHT22;64605;48.296;16.416;2023-04-03T03:17:38;8.80;56.60
75927;DHT22;64605;48.296;16.416;2023-04-03T03:20:05;8.80;56.90
75927;DHT22;64605;48.296;16.416;2023-04-03T03:22:31;8.80;56.80
75927;DHT22;64605;48.296;16.416;2023-04-03T03:24:57;8.80;56.80
75927;DHT22;64605;48.296;16.416;2023-04-03T03:27:23;8.80;56.80
75927;DHT22;64605;48.296;16.416;2023-04-03T03:29:49;8.80;56.40
75927;DHT22;64605;48.296;16.416;2023-04-03T03:32:15;8.80;55.90
75927;DHT22;64605;48.296;16.416;2023-04-03T03:34:40;8.80;55.60
75927;DHT22;64605;48.296;16.416;2023-04-03T03:37:06;8.80;55.50
75927;DHT22;64605;48.296;16.416;2023-04-03T03:39:32;8.80;55.40
75927;DHT22;64605;48.296;16.416;2023-04-03T03:41:58;8.80;55.70
75927;DHT22;64605;48.296;16.416;2023-04-03T03:44:23;8.80;55.60
75927;DHT22;64605;48.296;16.416;2023-04-03T03:46:49;8.70;56.10
75927;DHT22;64605;48.296;16.416;2023-04-03T03:49:15;8.70;56.20
75927;DHT22;64605;48.296;16.416;2023-04-03T03:51:40;8.70;56.30
75927;DHT22;64605;48.296;16.416;2023-04-03T03:54:06;8.70;56.60
75927;DHT22;64605;48.296;16.416;2023-04-03T03:56:33;8.70;56.50
75927;DHT22;64605;48.296;16.416;2023-04-03T03:58:58;8.60;56.30
75927;DHT22;64605;48.296;16.416;2023-04-03T04:01:25;8.60;56.30
75927;DHT22;64605;48.296;16.416;2023-04-03T04:03:50;8.60;56.50
75927;DHT22;64605;48.296;16.416;2023-04-03T04:06:16;8.50;56.60
75927;DHT22;64605;48.296;16.416;2023-04-03T04:08:42;8.50;56.70
75927;DHT22;64605;48.296;16.416;2023-04-03T04:11:08;8.50;56.50
75927;DHT22;64605;48.296;16.416;2023-04-03T04:13:34;8.50;56.60
75927;DHT22;64605;48.296;16.416;2023-04-03T04:16:00;8.50;57.00
75927;DHT22;64605;48.296;16.416;2023-04-03T04:18:26;8.50;56.90
75927;DHT22;64605;48.296;16.416;2023-04-03T04:20:52;8.50;57.20
75927;DHT22;64605;48.296;16.416;2023-04-03T04:23:18;8.50;57.00
75927;DHT22;64605;48.296;16.416;2023-04-03T04:25:48;8.40;57.00
75927;DHT22;64605;48.296;16.416;2023-04-03T04:28:15;8.40;57.30
75927;DHT22;64605;48.296;16.416;2023-04-03T04:30:40;8.40;57.30
75927;DHT22;64605;48.296;16.416;2023-04-03T04:33:06;8.40;57.10
75927;DHT22;64605;48.296;16.416;2023-04-03T04:35:33;8.40;57.40
75927;DHT22;64605;48.296;16.416;2023-04-03T04:37:58;8.40;57.30
75927;DHT22;64605;48.296;16.416;2023-04-03T04:40:25;8.40;57.50
75927;DHT22;64605;48.296;16.416;2023-04-03T04:42:51;8.40;57.70
75927;DHT22;64605;48.296;16.416;2023-04-03T04:45:17;8.40;57.70
75927;DHT22;64605;48.296;16.416;2023-04-03T04:47:42;8.50;57.60
75927;DHT22;64605;48.296;16.416;2023-04-03T04:50:08;8.50;57.40
75927;DHT22;64605;48.296;16.416;2023-04-03T04:52:34;8.50;57.70
75927;DHT22;64605;48.296;16.416;2023-04-03T04:55:00;8.50;57.50
75927;DHT22;64605;48.296;16.416;2023-04-03T04:57:26;8.40;57.60
75927;DHT22;64605;48.296;16.416;2023-04-03T04:59:51;8.50;57.60
75927;DHT22;64605;48.296;16.416;2023-04-03T05:02:17;8.50;57.40
75927;DHT22;64605;48.296;16.416;2023-04-03T05:04:43;8.40;56.90
75927;DHT22;64605;48.296;16.416;2023-04-03T05:07:09;8.50;56.90
75927;DHT22;64605;48.296;16.416;2023-04-03T05:09:35;8.40;56.80
75927;DHT22;64605;48.296;16.416;2023-04-03T05:12:00;8.40;56.50
75927;DHT22;64605;48.296;16.416;2023-04-03T05:14:27;8.40;56.30
75927;DHT22;64605;48.296;16.416;2023-04-03T05:16:52;8.40;56.40
75927;DHT22;64605;48.296;16.416;2023-04-03T05:19:20;8.40;56.60
75927;DHT22;64605;48.296;16.416;2023-04-03T05:21:46;8.40;56.60
75927;DHT22;64605;48.296;16.416;2023-04-03T05:24:12;8.40;56.40
75927;DHT22;64605;48.296;16.416;2023-04-03T05:26:37;8.50;56.70
75927;DHT22;64605;48.296;16.416;2023-04-03T05:29:03;8.50;56.90
75927;DHT22;64605;48.296;16.416;2023-04-03T05:31:29;8.50;56.80
75927;DHT22;64605;48.296;16.416;2023-04-03T05:33:55;8.60;57.20
75927;DHT22;64605;48.296;16.416;2023-04-03T05:36:22;8.60;56.90
75927;DHT22;64605;48.296;16.416;2023-04-03T05:38:47;8.70;56.30
75927;DHT22;64605;48.296;16.416;2023-04-03T05:41:14;8.80;56.10
75927;DHT22;64605;48.296;16.416;2023-04-03T05:43:40;8.90;55.40
75927;DHT22;64605;48.296;16.416;2023-04-03T05:46:17;9.00;55.60
75927;DHT22;64605;48.296;16.416;2023-04-03T05:48:43;9.00;55.60
75927;DHT22;64605;48.296;16.416;2023-04-03T05:51:24;9.20;55.20
75927;DHT22;64605;48.296;16.416;2023-04-03T05:53:56;9.20;55.00
75927;DHT22;64605;48.296;16.416;2023-04-03T05:56:24;9.20;54.20
75927;DHT22;64605;48.296;16.416;2023-04-03T05:58:50;9.20;53.90
75927;DHT22;64605;48.296;16.416;2023-04-03T06:01:15;9.20;52.90
75927;DHT22;64605;48.296;16.416;2023-04-03T06:03:41;9.20;52.70
75927;DHT22;64605;48.296;16.416;2023-04-03T06:06:07;9.20;52.70
75927;DHT22;64605;48.296;16.416;2023-04-03T06:08:33;9.20;52.70
75927;DHT22;64605;48.296;16.416;2023-04-03T06:11:00;9.20;52.90
75927;DHT22;64605;48.296;16.416;2023-04-03T06:13:27;9.20;53.00
75927;DHT22;64605;48.296;16.416;2023-04-03T06:15:52;9.20;53.40
75927;DHT22;64605;48.296;16.416;2023-04-03T06:18:18;9.30;53.20
75927;DHT22;64605;48.296;16.416;2023-04-03T06:20:45;9.30;53.10
75927;DHT22;64605;48.296;16.416;2023-04-03T06:23:11;9.30;52.70
75927;DHT22;64605;48.296;16.416;2023-04-03T06:25:37;9.30;52.70
75927;DHT22;64605;48.296;16.416;2023-04-03T06:28:03;9.40;52.80
75927;DHT22;64605;48.296;16.416;2023-04-03T06:30:28;9.40;52.50
75927;DHT22;64605;48.296;16.416;2023-04-03T06:32:54;9.30;52.40
75927;DHT22;64605;48.296;16.416;2023-04-03T06:35:20;9.20;52.70
75927;DHT22;64605;48.296;16.416;2023-04-03T06:37:49;9.30;52.50
75927;DHT22;64605;48.296;16.416;2023-04-03T06:40:22;9.30;51.70
75927;DHT22;64605;48.296;16.416;2023-04-03T06:42:48;9.30;51.70
75927;DHT22;64605;48.296;16.416;2023-04-03T06:45:13;9.30;51.90
75927;DHT22;64605;48.296;16.416;2023-04-03T06:47:39;9.30;51.90
75927;DHT22;64605;48.296;16.416;2023-04-03T06:50:06;9.30;52.10
75927;DHT22;64605;48.296;16.416;2023-04-03T06:52:32;9.40;51.70
75927;DHT22;64605;48.296;16.416;2023-04-03T06:54:58;9.40;51.80
75927;DHT22;64605;48.296;16.416;2023-04-03T06:57:25;9.40;51.50
75927;DHT22;64605;48.296;16.416;2023-04-03T06:59:50;9.40;51.20
75927;DHT22;64605;48.296;16.416;2023-04-03T07:02:17;9.40;51.50
75927;DHT22;64605;48.296;16.416;2023-04-03T07:04:42;9.40;51.50
75927;DHT22;64605;48.296;16.416;2023-04-03T07:07:08;9.50;51.60
75927;DHT22;64605;48.296;16.416;2023-04-03T07:09:34;9.50;50.50
75927;DHT22;64605;48.296;16.416;2023-04-03T07:12:00;9.60;50.40
75927;DHT22;64605;48.296;16.416;2023-04-03T07:14:25;9.70;50.10
75927;DHT22;64605;48.296;16.416;2023-04-03T07:16:51;9.80;50.10
75927;DHT22;64605;48.296;16.416;2023-04-03T07:19:17;10.00;49.50
75927;DHT22;64605;48.296;16.416;2023-04-03T07:21:44;10.10;49.60
75927;DHT22;64605;48.296;16.416;2023-04-03T07:24:10;10.30;49.50
75927;DHT22;64605;48.296;16.416;2023-04-03T07:26:36;10.50;47.70
75927;DHT22;64605;48.296;16.416;2023-04-03T07:29:02;10.60;48.10
75927;DHT22;64605;48.296;16.416;2023-04-03T07:31:28;10.90;48.20
75927;DHT22;64605;48.296;16.416;2023-04-03T07:33:53;11.20;47.50
75927;DHT22;64605;48.296;16.416;2023-04-03T07:36:21;11.60;47.30
75927;DHT22;64605;48.296;16.416;2023-04-03T07:38:47;12.20;44.80
75927;DHT22;64605;48.296;16.416;2023-04-03T07:41:15;13.10;44.10
75927;DHT22;64605;48.296;16.416;2023-04-03T07:43:41;14.60;42.90
75927;DHT22;64605;48.296;16.416;2023-04-03T07:46:08;16.00;39.60
75927;DHT22;64605;48.296;16.416;2023-04-03T07:48:34;17.30;38.60
75927;DHT22;64605;48.296;16.416;2023-04-03T07:51:01;19.20;36.90
75927;DHT22;64605;48.296;16.416;2023-04-03T07:53:27;20.40;33.10
75927;DHT22;64605;48.296;16.416;2023-04-03T07:55:53;21.20;30.70
75927;DHT22;64605;48.296;16.416;2023-04-03T07:58:21;22.40;29.30
75927;DHT22;64605;48.296;16.416;2023-04-03T08:00:47;23.70;27.10
75927;DHT22;64605;48.296;16.416;2023-04-03T08:03:14;24.70;26.60
75927;DHT22;64605;48.296;16.416;2023-04-03T08:05:44;26.40;25.00
75927;DHT22;64605;48.296;16.416;2023-04-03T08:08:12;27.90;24.70
75927;DHT22;64605;48.296;16.416;2023-04-03T08:10:39;28.70;22.80
75927;DHT22;64605;48.296;16.416;2023-04-03T08:13:05;28.80;20.70
75927;DHT22;64605;48.296;16.416;2023-04-03T08:15:31;27.80;21.10
75927;DHT22;64605;48.296;16.416;2023-04-03T08:17:58;28.20;21.10
75927;DHT22;64605;48.296;16.416;2023-04-03T08:20:24;28.80;20.50
75927;DHT22;64605;48.296;16.416;2023-04-03T08:22:50;28.80;19.80
75927;DHT22;64605;48.296;16.416;2023-04-03T08:25:16;29.40;21.20
75927;DHT22;64605;48.296;16.416;2023-04-03T08:27:43;30.70;20.00
75927;DHT22;64605;48.296;16.416;2023-04-03T08:30:09;31.50;19.70
75927;DHT22;64605;48.296;16.416;2023-04-03T08:32:34;32.60;18.00
75927;DHT22;64605;48.296;16.416;2023-04-03T08:35:02;33.60;18.10
75927;DHT22;64605;48.296;16.416;2023-04-03T08:37:27;33.60;16.70
75927;DHT22;64605;48.296;16.416;2023-04-03T08:39:53;32.40;16.20
75927;DHT22;64605;48.296;16.416;2023-04-03T08:45:04;33.30;15.90
75927;DHT22;64605;48.296;16.416;2023-04-03T08:50:18;30.80;15.40
75927;DHT22;64605;48.296;16.416;2023-04-03T08:52:51;28.80;17.30
75927;DHT22;64605;48.296;16.416;2023-04-03T08:55:40;29.50;18.20
75927;DHT22;64605;48.296;16.416;2023-04-03T08:58:20;28.40;16.70
75927;DHT22;64605;48.296;16.416;2023-04-03T09:03:19;25.10;18.30
75927;DHT22;64605;48.296;16.416;2023-04-03T09:06:05;23.90;19.60
75927;DHT22;64605;48.296;16.416;2023-04-03T09:08:51;22.70;21.10
75927;DHT22;64605;48.296;16.416;2023-04-03T09:11:28;22.00;21.20
75927;DHT22;64605;48.296;16.416;2023-04-03T09:17:03;20.20;22.20
75927;DHT22;64605;48.296;16.416;2023-04-03T09:22:20;18.90;24.40
75927;DHT22;64605;48.296;16.416;2023-04-03T09:24:57;18.50;23.90
75927;DHT22;64605;48.296;16.416;2023-04-03T09:27:24;18.20;25.20
75927;DHT22;64605;48.296;16.416;2023-04-03T09:29:53;17.90;25.60
75927;DHT22;64605;48.296;16.416;2023-04-03T09:32:29;17.40;26.00
75927;DHT22;64605;48.296;16.416;2023-04-03T09:34:59;16.90;26.00
75927;DHT22;64605;48.296;16.416;2023-04-03T09:37:44;16.40;26.60
75927;DHT22;64605;48.296;16.416;2023-04-03T09:42:51;15.70;26.90
75927;DHT22;64605;48.296;16.416;2023-04-03T09:45:26;15.20;27.60
75927;DHT22;64605;48.296;16.416;2023-04-03T09:50:35;14.40;27.80
75927;DHT22;64605;48.296;16.416;2023-04-03T09:58:40;13.80;29.50
75927;DHT22;64605;48.296;16.416;2023-04-03T10:01:09;13.70;29.80
75927;DHT22;64605;48.296;16.416;2023-04-03T10:03:45;13.80;30.00
75927;DHT22;64605;48.296;16.416;2023-04-03T10:06:24;13.70;30.00
75927;DHT22;64605;48.296;16.416;2023-04-03T10:09:23;13.70;29.90
75927;DHT22;64605;48.296;16.416;2023-04-03T10:14:34;13.50;31.80
75927;DHT22;64605;48.296;16.416;2023-04-03T10:20:03;13.50;30.60
75927;DHT22;64605;48.296;16.416;2023-04-03T10:25:40;13.90;30.20
75927;DHT22;64605;48.296;16.416;2023-04-03T10:28:35;14.20;30.80
75927;DHT22;64605;48.296;16.416;2023-04-03T10:33:56;14.60;29.30
75927;DHT22;64605;48.296;16.416;2023-04-03T10:36:38;15.10;29.60
75927;DHT22;64605;48.296;16.416;2023-04-03T10:47:18;15.90;26.50
75927;DHT22;64605;48.296;16.416;2023-04-03T10:55:41;14.70;28.00
75927;DHT22;64605;48.296;16.416;2023-04-03T10:58:39;15.00;28.80
75927;DHT22;64605;48.296;16.416;2023-04-03T11:01:07;16.60;28.50
75927;DHT22;64605;48.296;16.416;2023-04-03T11:03:42;17.10;27.10
75927;DHT22;64605;48.296;16.416;2023-04-03T11:06:11;17.20;26.70
75927;DHT22;64605;48.296;16.416;2023-04-03T11:08:57;16.90;26.60
75927;DHT22;64605;48.296;16.416;2023-04-03T11:11:32;16.40;26.80
75927;DHT22;64605;48.296;16.416;2023-04-03T11:14:02;15.90;26.70
75927;DHT22;64605;48.296;16.416;2023-04-03T11:16:32;15.50;26.90
75927;DHT22;64605;48.296;16.416;2023-04-03T11:19:05;15.30;27.30
75927;DHT22;64605;48.296;16.416;2023-04-03T11:21:42;15.20;27.20
75927;DHT22;64605;48.296;16.416;2023-04-03T11:24:32;15.00;26.70
75927;DHT22;64605;48.296;16.416;2023-04-03T11:27:00;14.90;26.80
75927;DHT22;64605;48.296;16.416;2023-04-03T11:29:35;14.80;26.70
75927;DHT22;64605;48.296;16.416;2023-04-03T11:32:42;14.90;26.60
75927;DHT22;64605;48.296;16.416;2023-04-03T11:35:14;15.30;26.40
75927;DHT22;64605;48.296;16.416;2023-04-03T11:37:48;15.70;26.60
75927;DHT22;64605;48.296;16.416;2023-04-03T11:42:54;15.30;26.00
75927;DHT22;64605;48.296;16.416;2023-04-03T11:47:58;14.70;26.80
75927;DHT22;64605;48.296;16.416;2023-04-03T12:11:15;14.70;26.90
75927;DHT22;64605;48.296;16.416;2023-04-03T12:27:01;15.00;26.70
75927;DHT22;64605;48.296;16.416;2023-04-03T12:46:44;14.80;28.10
75927;DHT22;64605;48.296;16.416;2023-04-03T12:51:52;15.00;26.40
75927;DHT22;64605;48.296;16.416;2023-04-03T12:54:38;14.90;26.70
75927;DHT22;64605;48.296;16.416;2023-04-03T12:57:20;14.80;26.70
75927;DHT22;64605;48.296;16.416;2023-04-03T12:59:47;14.70;26.60
75927;DHT22;64605;48.296;16.416;2023-04-03T13:02:21;14.50;27.00
75927;DHT22;64605;48.296;16.416;2023-04-03T13:04:47;14.50;27.00
75927;DHT22;64605;48.296;16.416;2023-04-03T13:07:22;14.60;27.60
75927;DHT22;64605;48.296;16.416;2023-04-03T13:10:03;14.70;26.70
75927;DHT22;64605;48.296;16.416;2023-04-03T13:12:30;14.70;26.70
75927;DHT22;64605;48.296;16.416;2023-04-03T13:15:11;14.70;27.00
75927;DHT22;64605;48.296;16.416;2023-04-03T13:17:39;14.70;26.40
75927;DHT22;64605;48.296;16.416;2023-04-03T13:20:27;14.50;26.50
75927;DHT22;64605;48.296;16.416;2023-04-03T13:25:24;14.30;27.10
75927;DHT22;64605;48.296;16.416;2023-04-03T13:27:51;14.10;27.30
75927;DHT22;64605;48.296;16.416;2023-04-03T13:30:37;14.00;27.10
75927;DHT22;64605;48.296;16.416;2023-04-03T13:33:18;13.90;26.70
75927;DHT22;64605;48.296;16.416;2023-04-03T13:35:44;13.70;27.20
75927;DHT22;64605;48.296;16.416;2023-04-03T13:40:53;13.30;28.10
75927;DHT22;64605;48.296;16.416;2023-04-03T13:43:25;13.10;28.10
75927;DHT22;64605;48.296;16.416;2023-04-03T13:46:00;13.10;28.70
75927;DHT22;64605;48.296;16.416;2023-04-03T13:48:27;13.00;28.20
75927;DHT22;64605;48.296;16.416;2023-04-03T13:51:04;12.90;28.40
75927;DHT22;64605;48.296;16.416;2023-04-03T13:53:33;12.70;28.70
75927;DHT22;64605;48.296;16.416;2023-04-03T13:58:30;12.60;28.40
75927;DHT22;64605;48.296;16.416;2023-04-03T14:01:01;12.60;28.20
75927;DHT22;64605;48.296;16.416;2023-04-03T14:06:30;12.60;29.20
75927;DHT22;64605;48.296;16.416;2023-04-03T14:08:56;12.80;29.30
75927;DHT22;64605;48.296;16.416;2023-04-03T14:11:26;13.00;29.10
75927;DHT22;64605;48.296;16.416;2023-04-03T14:13:53;13.20;28.90
75927;DHT22;64605;48.296;16.416;2023-04-03T14:16:24;13.20;28.30
75927;DHT22;64605;48.296;16.416;2023-04-03T14:18:52;13.10;28.30
75927;DHT22;64605;48.296;16.416;2023-04-03T14:21:19;13.00;28.60
75927;DHT22;64605;48.296;16.416;2023-04-03T14:23:46;13.00;29.00
75927;DHT22;64605;48.296;16.416;2023-04-03T14:26:18;12.90;29.40
75927;DHT22;64605;48.296;16.416;2023-04-03T14:28:47;12.80;29.50
75927;DHT22;64605;48.296;16.416;2023-04-03T14:31:14;12.70;28.80
75927;DHT22;64605;48.296;16.416;2023-04-03T14:33:40;12.60;29.30
75927;DHT22;64605;48.296;16.416;2023-04-03T14:36:23;12.40;29.50
75927;DHT22;64605;48.296;16.416;2023-04-03T14:38:51;12.30;30.00
75927;DHT22;64605;48.296;16.416;2023-04-03T14:41:20;12.40;29.70
75927;DHT22;64605;48.296;16.416;2023-04-03T14:43:46;12.40;29.80
75927;DHT22;64605;48.296;16.416;2023-04-03T14:46:14;12.50;30.50
75927;DHT22;64605;48.296;16.416;2023-04-03T14:48:41;12.40;29.00
75927;DHT22;64605;48.296;16.416;2023-04-03T14:51:08;12.20;28.40
75927;DHT22;64605;48.296;16.416;2023-04-03T14:53:35;12.00;29.00
75927;DHT22;64605;48.296;16.416;2023-04-03T14:56:01;12.00;29.60
75927;DHT22;64605;48.296;16.416;2023-04-03T14:58:27;12.00;29.00
75927;DHT22;64605;48.296;16.416;2023-04-03T15:00:53;12.10;28.50
75927;DHT22;64605;48.296;16.416;2023-04-03T15:03:21;12.00;28.30
75927;DHT22;64605;48.296;16.416;2023-04-03T15:05:48;11.90;28.90
75927;DHT22;64605;48.296;16.416;2023-04-03T15:08:26;11.80;29.30
75927;DHT22;64605;48.296;16.416;2023-04-03T15:10:55;11.60;29.90
75927;DHT22;64605;48.296;16.416;2023-04-03T15:13:22;11.50;29.80
75927;DHT22;64605;48.296;16.416;2023-04-03T15:15:48;11.40;30.10
75927;DHT22;64605;48.296;16.416;2023-04-03T15:18:26;11.40;30.40
75927;DHT22;64605;48.296;16.416;2023-04-03T15:20:55;11.40;30.60
75927;DHT22;64605;48.296;16.416;2023-04-03T15:23:21;11.40;30.10
75927;DHT22;64605;48.296;16.416;2023-04-03T15:25:52;11.30;30.40
75927;DHT22;64605;48.296;16.416;2023-04-03T15:28:39;11.20;30.60
75927;DHT22;64605;48.296;16.416;2023-04-03T15:31:05;11.10;30.50
75927;DHT22;64605;48.296;16.416;2023-04-03T15:33:32;11.00;30.60
75927;DHT22;64605;48.296;16.416;2023-04-03T15:35:58;10.90;31.00
75927;DHT22;64605;48.296;16.416;2023-04-03T15:38:24;10.90;31.30
75927;DHT22;64605;48.296;16.416;2023-04-03T15:40:50;10.90;31.90
75927;DHT22;64605;48.296;16.416;2023-04-03T15:43:16;10.90;30.40
75927;DHT22;64605;48.296;16.416;2023-04-03T15:45:42;10.80;31.00
75927;DHT22;64605;48.296;16.416;2023-04-03T15:48:09;10.70;31.50
75927;DHT22;64605;48.296;16.416;2023-04-03T15:50:35;10.50;31.30
75927;DHT22;64605;48.296;16.416;2023-04-03T15:53:01;10.50;31.60
75927;DHT22;64605;48.296;16.416;2023-04-03T15:55:32;10.40;31.50
75927;DHT22;64605;48.296;16.416;2023-04-03T15:57:58;10.30;31.70
75927;DHT22;64605;48.296;16.416;2023-04-03T16:00:24;10.30;31.80
75927;DHT22;64605;48.296;16.416;2023-04-03T16:02:53;10.20;32.10
75927;DHT22;64605;48.296;16.416;2023-04-03T16:05:21;10.20;32.10
75927;DHT22;64605;48.296;16.416;2023-04-03T16:07:47;10.20;31.50
75927;DHT22;64605;48.296;16.416;2023-04-03T16:10:14;10.10;31.50
75927;DHT22;64605;48.296;16.416;2023-04-03T16:12:40;10.00;31.10
75927;DHT22;64605;48.296;16.416;2023-04-03T16:15:06;9.90;31.00
75927;DHT22;64605;48.296;16.416;2023-04-03T16:17:34;9.90;31.90
75927;DHT22;64605;48.296;16.416;2023-04-03T16:20:01;9.90;31.30
75927;DHT22;64605;48.296;16.416;2023-04-03T16:22:28;9.80;31.70
75927;DHT22;64605;48.296;16.416;2023-04-03T16:24:54;9.70;31.80
75927;DHT22;64605;48.296;16.416;2023-04-03T16:27:21;9.70;32.30
75927;DHT22;64605;48.296;16.416;2023-04-03T16:29:47;9.60;32.40
75927;DHT22;64605;48.296;16.416;2023-04-03T16:32:13;9.50;32.40
75927;DHT22;64605;48.296;16.416;2023-04-03T16:34:39;9.40;32.60
75927;DHT22;64605;48.296;16.416;2023-04-03T16:37:06;9.40;32.60
75927;DHT22;64605;48.296;16.416;2023-04-03T16:39:34;9.40;33.00
75927;DHT22;64605;48.296;16.416;2023-04-03T16:42:00;9.30;32.50
75927;DHT22;64605;48.296;16.416;2023-04-03T16:44:26;9.30;33.00
75927;DHT22;64605;48.296;16.416;2023-04-03T16:46:51;9.20;32.90
75927;DHT22;64605;48.296;16.416;2023-04-03T16:49:17;9.10;33.00
75927;DHT22;64605;48.296;16.416;2023-04-03T16:51:43;9.10;33.00
75927;DHT22;64605;48.296;16.416;2023-04-03T16:54:09;9.00;33.20
75927;DHT22;64605;48.296;16.416;2023-04-03T16:56:36;9.00;33.10
75927;DHT22;64605;48.296;16.416;2023-04-03T16:59:02;9.00;33.50
75927;DHT22;64605;48.296;16.416;2023-04-03T17:01:28;8.90;33.30
75927;DHT22;64605;48.296;16.416;2023-04-03T17:03:53;8.80;33.70
75927;DHT22;64605;48.296;16.416;2023-04-03T17:06:21;8.80;34.80
75927;DHT22;64605;48.296;16.416;2023-04-03T17:08:49;8.70;33.70
75927;DHT22;64605;48.296;16.416;2023-04-03T17:11:15;8.70;34.10
75927;DHT22;64605;48.296;16.416;2023-04-03T17:13:41;8.60;34.00
75927;DHT22;64605;48.296;16.416;2023-04-03T17:16:09;8.60;34.40
75927;DHT22;64605;48.296;16.416;2023-04-03T17:18:35;8.50;34.70
75927;DHT22;64605;48.296;16.416;2023-04-03T17:21:02;8.40;34.90
75927;DHT22;64605;48.296;16.416;2023-04-03T17:23:28;8.40;35.00
75927;DHT22;64605;48.296;16.416;2023-04-03T17:25:55;8.40;34.60
75927;DHT22;64605;48.296;16.416;2023-04-03T17:28:23;8.40;34.80
75927;DHT22;64605;48.296;16.416;2023-04-03T17:30:58;8.30;34.80
75927;DHT22;64605;48.296;16.416;2023-04-03T17:33:25;8.30;35.20
75927;DHT22;64605;48.296;16.416;2023-04-03T17:35:55;8.20;35.10
75927;DHT22;64605;48.296;16.416;2023-04-03T17:38:21;8.20;35.30
75927;DHT22;64605;48.296;16.416;2023-04-03T17:40:47;8.10;35.30